Time;durP1;ratioP1;P1;durP2;ratioP2;P2;SDS_P1;SDS_P2;PMS_P1;PMS_P2;Temp;Humidity;BMP_temperature;BMP_pressure;BME280_temperature;BME280_humidity;BME280_pressure;Samples;Min_cycle;Max_cycle;Signal;HPM_P1;HPM_P2
2023/07/12 00:45:20;;;;;;;4.93;3.20;;;21.00;95.20;;;;;;6155284;23;20135;-95
2023/07/12 00:47:50;;;;;;;4.80;2.30;;;21.10;83.30;;;;;;6155043;23;20167;-96
2023/07/12 00:53:02;;;;;;;4.30;2.50;;;21.10;96.00;;;;;;6268857;22;20211;-96
2023/07/12 00:55:56;;;;;;;3.67;2.80;;;21.20;83.10;;;;;;6273983;22;20199;-95
2023/07/12 00:58:24;;;;;;;5.43;2.72;;;21.20;95.70;;;;;;6274392;22;20182;-96
2023/07/12 01:06:10;;;;;;;4.22;2.60;;;21.20;96.00;;;;;;6222555;22;20203;-96
2023/07/12 01:08:42;;;;;;;4.03;2.50;;;21.10;92.80;;;;;;6210920;22;20215;-95
2023/07/12 01:11:14;;;;;;;5.10;2.78;;;21.10;92.50;;;;;;6273534;23;20215;-95
2023/07/12 01:13:46;;;;;;;6.60;2.90;;;21.10;92.30;;;;;;6275223;22;20136;-96
2023/07/12 01:16:16;;;;;;;6.00;2.75;;;21.10;92.50;;;;;;6263758;22;20179;-91
2023/07/12 01:47:12;;;;;;;5.03;2.90;;;21.10;98.70;;;;;;6234748;22;20189;-96
2023/07/12 01:54:47;;;;;;;4.65;2.97;;;21.10;93.80;;;;;;6241886;22;20157;-89
2023/07/12 01:57:15;;;;;;;4.97;2.88;;;21.10;89.90;;;;;;6243484;22;20687;-96
2023/07/12 02:17:56;;;;;;;7.15;2.90;;;21.10;99.60;;;;;;6257465;22;20203;-96
2023/07/12 02:23:00;;;;;;;3.70;2.83;;;21.10;95.80;;;;;;6230095;22;20184;-91
2023/07/12 02:30:41;;;;;;;5.32;3.28;;;21.00;99.90;;;;;;6230795;22;20195;-94
2023/07/12 02:33:10;;;;;;;4.82;3.08;;;21.00;93.60;;;;;;6255116;22;20184;-94
2023/07/12 02:35:43;;;;;;;5.32;2.80;;;21.00;94.20;;;;;;6263386;22;20184;-94
2023/07/12 02:48:29;;;;;;;4.65;3.13;;;21.10;99.90;;;;;;6243958;22;20204;-96
2023/07/12 03:03:44;;;;;;;3.55;2.80;;;21.20;99.90;;;;;;6249254;22;20199;-96
2023/07/12 03:08:46;;;;;;;5.78;3.05;;;21.20;99.90;;;;;;6227479;22;20183;-95
2023/07/12 03:13:54;;;;;;;4.10;2.97;;;21.30;99.90;;;;;;6215138;22;20426;-96
2023/07/12 03:19:00;;;;;;;4.28;3.20;;;21.40;99.90;;;;;;6202781;22;20206;-93
2023/07/12 03:47:25;;;;;;;6.40;2.90;;;21.80;99.90;;;;;;6218736;22;20178;-86
2023/07/12 03:49:55;;;;;;;5.18;3.10;;;21.80;98.50;;;;;;6247800;23;20148;-86
2023/07/12 05:29:04;;;;;;;13.57;3.95;;;23.10;99.90;;;;;;6250111;22;20207;-96
2023/07/12 05:31:36;;;;;;;8.55;4.63;;;23.10;99.90;;;;;;6272075;22;20207;-96
2023/07/12 05:34:03;;;;;;;10.95;5.10;;;23.00;99.90;;;;;;6273383;22;20165;-96
2023/07/12 05:36:31;;;;;;;5.50;4.47;;;23.00;99.90;;;;;;6273360;22;20221;-96
2023/07/12 05:38:58;;;;;;;8.95;4.85;;;23.00;99.90;;;;;;6273871;22;20269;-96
2023/07/12 05:41:26;;;;;;;8.02;4.82;;;23.00;99.90;;;;;;6274248;22;20162;-96
2023/07/12 05:43:53;;;;;;;7.15;4.80;;;23.00;99.90;;;;;;6269477;22;20199;-96
2023/07/12 05:46:21;;;;;;;10.05;5.38;;;23.10;99.90;;;;;;6267769;22;20191;-96
2023/07/12 05:48:48;;;;;;;8.88;5.35;;;23.10;99.90;;;;;;6273184;23;20198;-96
2023/07/12 05:51:15;;;;;;;7.18;5.07;;;23.20;99.90;;;;;;6273297;22;20183;-96
2023/07/12 05:53:43;;;;;;;11.65;5.55;;;23.50;99.90;;;;;;6270251;23;20169;-96
2023/07/12 05:56:11;;;;;;;7.30;5.40;;;23.80;99.90;;;;;;6271378;22;20153;-96
2023/07/12 05:58:39;;;;;;;11.63;5.20;;;24.10;99.90;;;;;;6271029;23;20164;-96
2023/07/12 06:01:06;;;;;;;9.32;5.07;;;24.20;99.90;;;;;;6272187;23;20216;-96
2023/07/12 06:03:35;;;;;;;9.23;5.15;;;24.30;99.90;;;;;;6271047;22;20175;-96
2023/07/12 06:06:07;;;;;;;8.70;4.95;;;24.20;99.90;;;;;;6272962;22;20156;-96
2023/07/12 06:11:04;;;;;;;9.43;5.65;;;24.00;99.90;;;;;;6272109;23;20188;-96
2023/07/12 06:13:32;;;;;;;19.55;6.65;;;24.00;99.90;;;;;;6273646;22;20153;-95
2023/07/12 06:15:59;;;;;;;18.17;6.90;;;23.90;99.90;;;;;;6273181;22;20195;-96
2023/07/12 06:20:58;;;;;;;8.50;6.07;;;23.80;99.90;;;;;;6275350;22;20195;-96
2023/07/12 06:23:26;;;;;;;10.32;5.68;;;23.80;99.90;;;;;;6281127;22;20258;-96
2023/07/12 06:25:58;;;;;;;12.32;6.10;;;23.80;99.90;;;;;;6272974;22;20171;-96
2023/07/12 06:28:25;;;;;;;8.68;6.43;;;23.90;99.90;;;;;;6265199;22;20254;-96
2023/07/12 06:30:52;;;;;;;11.10;6.38;;;24.10;99.90;;;;;;6257995;22;20224;-93
2023/07/12 06:33:20;;;;;;;10.85;6.70;;;24.10;1.00;;;;;;6241769;23;20161;-96
2023/07/12 06:35:47;;;;;;;11.00;6.63;;;24.20;1.00;;;;;;6240085;23;20167;-96
2023/07/12 06:38:16;;;;;;;9.98;6.88;;;24.30;1.00;;;;;;6241899;23;20165;-96
2023/07/12 06:40:45;;;;;;;8.27;6.95;;;24.50;1.00;;;;;;6256998;22;20195;-96
2023/07/12 06:43:13;;;;;;;10.23;7.00;;;24.70;1.00;;;;;;6266116;22;20184;-96
2023/07/12 06:45:40;;;;;;;15.85;6.90;;;24.80;1.00;;;;;;6271358;22;20184;-96
2023/07/12 06:48:07;;;;;;;11.57;7.22;;;24.80;1.00;;;;;;6273848;22;20165;-96
2023/07/12 06:50:34;;;;;;;11.35;6.90;;;24.60;1.00;;;;;;6287165;22;20203;-96
2023/07/12 06:53:02;;;;;;;7.68;6.43;;;24.50;1.00;;;;;;6268376;22;20207;-96
2023/07/12 07:00:32;;;;;;;11.77;7.03;;;24.30;1.00;;;;;;6239455;22;20200;-96
2023/07/12 07:16:22;;;;;;;10.65;7.55;;;23.60;99.90;;;;;;6245637;22;20243;-94
2023/07/12 07:24:00;;;;;;;9.38;6.95;;;23.50;1.00;;;;;;6233559;22;20183;-95
2023/07/12 08:23:57;;;;;;;11.25;8.18;;;24.90;90.40;;;;;;6253675;22;20180;-96
2023/07/12 08:29:06;;;;;;;13.80;9.30;;;24.30;1.00;;;;;;6221320;22;20341;-90
2023/07/12 08:49:43;;;;;;;10.68;8.77;;;25.40;99.90;;;;;;6222776;22;20206;-93
2023/07/12 08:52:17;;;;;;;19.50;9.27;;;25.90;99.90;;;;;;6304209;22;20180;-96
2023/07/12 08:54:44;;;;;;;12.85;9.75;;;26.40;17.90;;;;;;6303439;22;20155;-96
2023/07/12 13:40:25;;;;;;;3.40;3.05;;;29.40;99.90;;;;;;6229552;22;20187;-96
2023/07/12 13:42:53;;;;;;;4.00;2.72;;;29.60;99.90;;;;;;6267921;22;20184;-96
2023/07/12 13:47:59;;;;;;;4.35;2.70;;;29.20;99.90;;;;;;6237050;22;20427;-92
2023/07/12 18:20:57;;;;;;;1.38;0.70;;;29.00;9.20;;;;;;6239550;22;20207;-93
2023/07/12 18:23:26;;;;;;;2.25;0.70;;;28.00;7.90;;;;;;6247167;23;20216;-93
2023/07/12 18:25:53;;;;;;;2.83;0.90;;;27.50;10.40;;;;;;6246926;23;20259;-93
2023/07/12 18:28:21;;;;;;;3.78;1.08;;;27.00;10.40;;;;;;6246806;23;20227;-93
2023/07/12 18:30:51;;;;;;;1.52;0.90;;;26.70;11.20;;;;;;6246939;23;20250;-96
2023/07/12 18:33:20;;;;;;;2.38;2.17;;;26.50;13.40;;;;;;6246511;23;20244;-96
2023/07/12 18:35:50;;;;;;;1.05;0.82;;;26.20;12.40;;;;;;6246539;23;20172;-95
2023/07/12 18:38:20;;;;;;;1.25;0.70;;;26.10;13.60;;;;;;6246338;23;20168;-93
2023/07/12 18:40:54;;;;;;;0.85;0.70;;;25.90;13.30;;;;;;6247339;23;20630;-95
2023/07/12 18:43:31;;;;;;;2.35;1.10;;;25.70;14.30;;;;;;6246835;23;20178;-93
2023/07/12 18:45:58;;;;;;;1.20;1.02;;;25.60;15.60;;;;;;6247726;23;20232;-95
2023/07/12 18:48:26;;;;;;;1.20;0.70;;;25.40;14.50;;;;;;6248003;23;20506;-95
2023/07/12 18:50:53;;;;;;;2.97;0.93;;;25.30;13.50;;;;;;6247083;23;20171;-95
2023/07/12 18:53:21;;;;;;;1.00;0.65;;;25.20;14.30;;;;;;6247258;23;20188;-94
2023/07/12 18:55:48;;;;;;;2.00;0.98;;;25.00;16.20;;;;;;6247507;23;20549;-94
2023/07/12 18:58:15;;;;;;;1.65;0.80;;;24.90;16.20;;;;;;6247159;23;20536;-94
2023/07/12 19:00:43;;;;;;;2.35;0.75;;;24.80;16.90;;;;;;6247201;23;20168;-95
2023/07/12 19:03:27;;;;;;;3.13;0.63;;;24.70;14.60;;;;;;6246660;23;20191;-95
2023/07/12 19:05:54;;;;;;;2.17;0.77;;;24.60;19.00;;;;;;6245921;23;20247;-94
2023/07/12 19:08:23;;;;;;;1.55;0.80;;;24.60;16.50;;;;;;6246683;23;20173;-94
2023/07/12 19:10:50;;;;;;;1.00;0.70;;;24.50;18.80;;;;;;6246273;23;20543;-94
2023/07/12 19:13:17;;;;;;;3.15;0.95;;;24.40;20.20;;;;;;6246330;23;20192;-96
2023/07/12 19:15:44;;;;;;;2.63;0.80;;;24.30;20.40;;;;;;6246476;23;20227;-94
2023/07/12 19:18:11;;;;;;;2.25;0.90;;;24.20;22.70;;;;;;6246442;23;20618;-94
2023/07/12 19:20:38;;;;;;;1.13;0.85;;;24.10;22.70;;;;;;6245446;23;20197;-94
2023/07/12 19:23:13;;;;;;;1.67;0.80;;;24.00;25.00;;;;;;6245339;23;20168;-94
2023/07/12 19:25:42;;;;;;;3.53;0.90;;;23.90;26.30;;;;;;6246489;23;20218;-94
2023/07/12 19:28:10;;;;;;;2.97;1.10;;;23.70;27.30;;;;;;6246617;23;20199;-94
2023/07/12 19:30:38;;;;;;;1.88;1.00;;;23.50;27.70;;;;;;6246139;23;20171;-94
2023/07/12 19:33:14;;;;;;;1.00;0.80;;;23.40;29.40;;;;;;6246484;23;20188;-96
2023/07/12 19:35:41;;;;;;;2.45;1.10;;;23.10;32.10;;;;;;6246733;23;20175;-95
2023/07/12 19:38:08;;;;;;;1.00;0.70;;;22.90;29.50;;;;;;6247131;23;20168;-95
2023/07/12 19:40:35;;;;;;;2.10;1.20;;;22.80;29.10;;;;;;6247420;23;20239;-96
2023/07/12 19:43:05;;;;;;;1.00;0.90;;;22.60;33.60;;;;;;6246973;23;20219;-95
2023/07/12 19:45:32;;;;;;;3.58;0.80;;;22.60;33.70;;;;;;6247372;23;20218;-96
2023/07/12 19:47:59;;;;;;;1.77;1.00;;;22.40;32.40;;;;;;6248279;23;20564;-95
2023/07/12 19:50:27;;;;;;;0.90;0.70;;;22.40;32.80;;;;;;6248371;23;20171;-94
